Time;durP1;ratioP1;P1;durP2;ratioP2;P2;SDS_P1;SDS_P2;PMS_P1;PMS_P2;Temp;Humidity;BMP_temperature;BMP_pressure;BME280_temperature;BME280_humidity;BME280_pressure;Samples;Min_cycle;Max_cycle;Signal;HPM_P1;HPM_P2
2024/02/26 00:00:01;;;;;;;3.60;1.27;;;;;;;4.37;100.00;99808.13;4956412;28;20051;-96
2024/02/26 00:02:37;;;;;;;1.88;1.00;;;;;;;4.33;100.00;99795.28;4974531;28;20499;-95
2024/02/26 00:05:07;;;;;;;2.55;1.17;;;;;;;4.31;100.00;99804.22;4959028;28;20030;-96
2024/02/26 00:07:43;;;;;;;1.98;1.10;;;;;;;4.34;100.00;99817.91;4971839;28;20038;-91
2024/02/26 00:10:24;;;;;;;2.10;1.20;;;;;;;4.45;100.00;99817.06;4975127;28;20026;-92
2024/02/26 00:13:00;;;;;;;3.42;1.48;;;;;;;4.42;100.00;99801.59;4964189;28;20061;-96
2024/02/26 00:15:27;;;;;;;1.55;0.88;;;;;;;4.41;100.00;99827.88;4952518;28;20042;-95
2024/02/26 00:17:53;;;;;;;1.77;1.25;;;;;;;4.42;100.00;99832.16;4969631;28;20026;-95
2024/02/26 00:20:20;;;;;;;5.70;1.58;;;;;;;4.48;100.00;99847.38;4961087;28;20038;-96
2024/02/26 00:22:46;;;;;;;2.03;1.35;;;;;;;4.46;100.00;99852.72;4955658;28;20049;-96
2024/02/26 00:25:24;;;;;;;2.75;1.02;;;;;;;4.45;100.00;99847.63;4955260;28;20125;-96
2024/02/26 00:27:58;;;;;;;1.75;1.02;;;;;;;4.45;100.00;99851.06;4961307;28;20045;-96
2024/02/26 00:30:44;;;;;;;3.25;1.50;;;;;;;4.47;100.00;99866.66;4954343;28;20039;-96
2024/02/26 00:33:16;;;;;;;2.88;1.23;;;;;;;4.43;100.00;99863.44;4953409;28;20072;-96
2024/02/26 00:35:55;;;;;;;2.85;1.30;;;;;;;4.44;100.00;99880.78;4971631;28;20058;-95
2024/02/26 00:38:29;;;;;;;3.53;1.40;;;;;;;4.49;100.00;99884.84;4966879;28;20128;-92
2024/02/26 00:40:57;;;;;;;5.07;1.20;;;;;;;4.39;100.00;99905.66;4971478;28;20056;-90
2024/02/26 00:43:23;;;;;;;2.58;1.15;;;;;;;4.37;100.00;99897.09;4972714;28;20038;-91
2024/02/26 00:45:49;;;;;;;3.22;1.20;;;;;;;4.37;100.00;99897.09;4967462;28;20045;-93
2024/02/26 00:48:15;;;;;;;6.55;1.30;;;;;;;4.31;100.00;99901.84;4976958;28;20038;-96
2024/02/26 00:50:44;;;;;;;6.53;1.33;;;;;;;4.34;100.00;99921.72;4961996;28;20033;-96
2024/02/26 00:53:15;;;;;;;7.18;1.83;;;;;;;4.36;100.00;99914.59;4949079;28;20121;-96
2024/02/26 00:55:47;;;;;;;4.20;1.52;;;;;;;4.36;100.00;99932.06;4960082;28;20045;-96
2024/02/26 00:58:38;;;;;;;1.20;1.10;;;;;;;4.33;100.00;99928.72;4974262;28;20041;-96
2024/02/26 01:01:20;;;;;;;2.33;1.30;;;;;;;4.32;100.00;99950.63;4956421;28;20030;-95
2024/02/26 01:04:06;;;;;;;2.72;1.05;;;;;;;4.32;100.00;99958.47;4961267;28;20045;-96
2024/02/26 01:07:00;;;;;;;2.80;1.60;;;;;;;4.27;100.00;99960.59;4990260;28;20045;-96
2024/02/26 01:09:26;;;;;;;2.65;1.17;;;;;;;4.23;100.00;99977.47;4974065;28;20113;-96
2024/02/26 01:12:21;;;;;;;2.65;1.23;;;;;;;4.30;100.00;99981.28;4986457;28;20046;-94
2024/02/26 01:14:47;;;;;;;1.73;1.23;;;;;;;4.25;100.00;99983.44;4950291;28;20053;-95
2024/02/26 01:17:31;;;;;;;4.93;1.67;;;;;;;4.21;100.00;99985.44;4970097;28;20056;-95
2024/02/26 01:20:08;;;;;;;4.10;1.80;;;;;;;4.10;100.00;99995.84;4970698;28;20033;-95
2024/02/26 01:22:40;;;;;;;3.33;1.77;;;;;;;4.11;100.00;100034.13;4954291;28;20046;-94
2024/02/26 01:25:26;;;;;;;4.43;1.48;;;;;;;4.05;100.00;100008.44;4988961;28;20062;-91
2024/02/26 01:28:09;;;;;;;2.75;1.30;;;;;;;4.00;100.00;100027.06;4967453;28;20041;-95
2024/02/26 01:30:38;;;;;;;1.88;1.00;;;;;;;3.99;100.00;100046.34;4972942;28;20037;-95
2024/02/26 01:33:44;;;;;;;2.47;1.60;;;;;;;4.18;100.00;100031.91;4949965;28;20142;-94
2024/02/26 01:36:11;;;;;;;4.63;1.70;;;;;;;4.21;100.00;100042.13;4965819;28;20043;-96
2024/02/26 01:38:40;;;;;;;1.85;1.25;;;;;;;4.13;100.00;100047.94;4935482;28;20055;-90
2024/02/26 01:41:09;;;;;;;1.85;1.00;;;;;;;4.01;100.00;100039.22;4944254;28;20557;-90
2024/02/26 01:43:45;;;;;;;1.33;1.13;;;;;;;3.94;100.00;100053.66;4955117;28;20039;-95
2024/02/26 01:46:21;;;;;;;2.90;1.00;;;;;;;4.01;100.00;100065.38;4970510;28;20031;-95
2024/02/26 01:49:24;;;;;;;;;;;;;;;;;;;;;
2024/02/26 01:52:33;;;;;;;2.17;1.60;;;;;;;3.94;100.00;100077.19;4966244;28;20035;-95
2024/02/26 01:55:03;;;;;;;3.10;1.15;;;;;;;3.92;100.00;100079.09;4950128;28;20054;-95
2024/02/26 01:57:58;;;;;;;2.40;0.90;;;;;;;3.82;100.00;100089.38;4956306;28;20043;-95
2024/02/26 02:00:34;;;;;;;1.67;1.15;;;;;;;3.77;100.00;100089.72;4950597;29;20536;-95
2024/02/26 02:03:06;;;;;;;;;;;;;;;3.72;100.00;100097.88;4942128;28;20074;-91
2024/02/26 02:06:00;;;;;;;3.13;1.10;;;;;;;3.75;100.00;100106.44;4964252;28;19918;-91
2024/02/26 02:08:41;;;;;;;6.13;1.10;;;;;;;3.76;100.00;100110.75;4951022;28;20499;-94
2024/02/26 02:11:15;;;;;;;3.60;0.52;;;;;;;3.65;100.00;100108.84;4979637;28;20059;-95
2024/02/26 02:13:48;;;;;;;9.23;1.15;;;;;;;3.77;100.00;100117.63;4949938;28;20497;-91
2024/02/26 02:16:17;;;;;;;3.47;1.23;;;;;;;3.74;100.00;100130.91;4965915;28;20364;-90
2024/02/26 02:18:52;;;;;;;3.55;1.08;;;;;;;3.73;100.00;100143.16;4952455;28;21012;-95
2024/02/26 02:21:24;;;;;;;3.33;0.93;;;;;;;3.81;100.00;100155.69;4937682;28;20058;-95
2024/02/26 02:23:58;;;;;;;7.63;0.98;;;;;;;3.87;100.00;100144.78;4957470;28;20053;-95
2024/02/26 02:26:34;;;;;;;;;;;;;;;;;;;;;
2024/02/26 02:29:02;;;;;;;2.28;0.52;;;;;;;3.83;100.00;100161.63;4947620;28;20395;-94
2024/02/26 02:31:54;;;;;;;3.35;0.65;;;;;;;3.84;100.00;100153.69;4951741;28;20048;-94
2024/02/26 02:34:32;;;;;;;1.83;0.80;;;;;;;3.86;100.00;100153.59;4955426;28;20038;-95
2024/02/26 02:37:01;;;;;;;2.78;0.88;;;;;;;3.73;100.00;100166.66;4954882;28;20046;-94
2024/02/26 02:39:33;;;;;;;1.33;0.52;;;;;;;3.74;100.00;100170.13;4952753;28;20043;-95
2024/02/26 02:42:05;;;;;;;1.48;0.60;;;;;;;3.81;100.00;100164.38;4969028;28;20031;-94
2024/02/26 02:44:31;;;;;;;0.93;0.50;;;;;;;3.72;100.00;100165.00;4949871;28;20562;-95
2024/02/26 02:46:56;;;;;;;2.47;0.60;;;;;;;3.80;100.00;100177.53;4968143;28;20042;-95
2024/02/26 02:49:23;;;;;;;3.42;0.55;;;;;;;3.78;100.00;100200.34;4960005;28;20482;-94
2024/02/26 02:51:49;;;;;;;2.55;0.90;;;;;;;3.76;100.00;100181.31;4974194;28;20140;-94
2024/02/26 02:54:15;;;;;;;3.38;1.35;;;;;;;3.75;100.00;100190.94;4959757;28;20070;-94
2024/02/26 02:56:40;;;;;;;1.35;0.30;;;;;;;3.80;100.00;100214.16;4970084;28;20072;-94
2024/02/26 02:59:06;;;;;;;1.55;0.80;;;;;;;3.83;100.00;100200.84;4987852;28;20038;-94
2024/02/26 03:01:32;;;;;;;0.60;0.50;;;;;;;3.81;100.00;100221.88;4953953;28;20074;-93
2024/02/26 03:03:58;;;;;;;1.50;0.55;;;;;;;3.83;100.00;100222.63;4962569;28;20039;-96
2024/02/26 03:06:26;;;;;;;0.77;0.52;;;;;;;3.81;100.00;100228.88;4970013;28;20113;-96
2024/02/26 03:08:52;;;;;;;3.13;0.98;;;;;;;3.78;100.00;100232.56;4966101;28;20034;-95
2024/02/26 03:11:19;;;;;;;2.65;0.65;;;;;;;3.77;100.00;100238.72;4974143;28;20042;-94
2024/02/26 03:13:45;;;;;;;2.78;0.75;;;;;;;3.77;100.00;100240.50;4963480;28;20057;-90
2024/02/26 03:16:11;;;;;;;1.92;0.60;;;;;;;3.74;100.00;100252.03;4971978;28;20031;-91
2024/02/26 03:18:40;;;;;;;6.30;0.65;;;;;;;3.78;100.00;100260.47;4969965;28;20035;-96
2024/02/26 03:21:07;;;;;;;3.42;0.60;;;;;;;3.72;100.00;100265.19;4964972;28;20354;-96
2024/02/26 03:23:43;;;;;;;2.08;0.40;;;;;;;3.73;100.00;100266.00;4967306;28;20481;-95
2024/02/26 03:26:13;;;;;;;3.50;0.80;;;;;;;3.66;100.00;100259.53;4954683;28;20030;-95
2024/02/26 03:28:44;;;;;;;2.22;0.65;;;;;;;3.68;100.00;100273.34;4960063;28;20038;-95
2024/02/26 03:31:10;;;;;;;2.55;0.60;;;;;;;3.75;100.00;100284.19;4952572;28;20479;-95
2024/02/26 03:33:36;;;;;;;2.72;0.57;;;;;;;3.74;100.00;100282.53;4959723;28;20030;-94
2024/02/26 03:36:02;;;;;;;3.22;0.80;;;;;;;3.78;100.00;100291.84;4978720;28;20038;-95
2024/02/26 03:38:31;;;;;;;3.88;0.60;;;;;;;3.79;100.00;100294.34;4991311;28;20042;-94
2024/02/26 03:40:57;;;;;;;4.05;0.68;;;;;;;3.73;100.00;100302.59;4952605;28;20030;-94
2024/02/26 03:43:37;;;;;;;4.82;0.47;;;;;;;3.71;100.00;100294.06;4951507;28;20043;-95
2024/02/26 03:46:03;;;;;;;1.42;0.65;;;;;;;3.71;100.00;100318.41;4976645;28;20034;-95
2024/02/26 03:48:29;;;;;;;4.90;0.80;;;;;;;3.65;100.00;100316.19;4971695;28;20097;-95
2024/02/26 03:50:55;;;;;;;3.08;0.90;;;;;;;3.67;100.00;100332.63;4952748;28;20043;-96
2024/02/26 03:53:21;;;;;;;1.58;0.60;;;;;;;3.69;100.00;100342.97;4968292;28;20045;-95
2024/02/26 03:55:47;;;;;;;6.28;1.10;;;;;;;3.66;100.00;100348.41;4940967;28;20482;-95
2024/02/26 03:58:13;;;;;;;2.25;0.32;;;;;;;3.66;100.00;100349.25;4960663;28;20045;-96
2024/02/26 04:00:38;;;;;;;3.33;0.57;;;;;;;3.67;100.00;100356.16;4987830;28;20042;-94
2024/02/26 04:03:09;;;;;;;1.20;0.50;;;;;;;3.75;100.00;100366.09;4957036;28;20022;-90
2024/02/26 04:05:35;;;;;;;3.47;0.85;;;;;;;3.75;100.00;100375.72;4989670;28;20088;-92
2024/02/26 04:08:07;;;;;;;0.40;0.28;;;;;;;3.72;100.00;100382.84;4987154;28;20386;-93
2024/02/26 04:10:35;;;;;;;1.00;0.50;;;;;;;3.77;100.00;100392.13;4969611;28;20137;-94
2024/02/26 04:13:02;;;;;;;1.58;0.95;;;;;;;3.72;100.00;100392.44;4954743;28;20026;-96
2024/02/26 04:15:36;;;;;;;2.95;0.70;;;;;;;3.69;100.00;100397.88;4970522;28;20495;-96
2024/02/26 04:18:33;;;;;;;;;;;;;;;;;;;;;
2024/02/26 04:21:10;;;;;;;0.45;0.30;;;;;;;3.66;100.00;100401.53;4972919;28;20030;-94
2024/02/26 04:23:41;;;;;;;3.25;0.50;;;;;;;3.64;100.00;100415.63;4959870;28;20046;-95
2024/02/26 04:26:07;;;;;;;0.52;0.30;;;;;;;3.60;100.00;100426.28;4954171;28;20044;-95
2024/02/26 04:28:33;;;;;;;0.90;0.60;;;;;;;3.57;100.00;100423.88;4955367;28;20537;-96
2024/02/26 04:30:59;;;;;;;3.95;0.80;;;;;;;3.52;100.00;100425.94;4976440;28;20053;-94
2024/02/26 04:33:25;;;;;;;1.90;0.65;;;;;;;3.55;100.00;100435.38;4981202;28;20077;-95
2024/02/26 04:35:51;;;;;;;4.25;0.40;;;;;;;3.49;100.00;100441.00;4960866;28;20036;-95
2024/02/26 04:38:20;;;;;;;2.70;0.68;;;;;;;3.47;100.00;100434.06;4975872;28;20034;-95
2024/02/26 04:40:54;;;;;;;1.05;0.50;;;;;;;3.53;100.00;100440.69;4967507;28;20560;-94
2024/02/26 04:43:20;;;;;;;2.58;0.40;;;;;;;3.54;100.00;100451.97;4951400;28;20050;-95
2024/02/26 04:45:46;;;;;;;2.25;0.85;;;;;;;3.59;100.00;100452.53;4974732;28;20414;-94
2024/02/26 04:48:12;;;;;;;3.28;0.52;;;;;;;3.60;100.00;100465.50;4968412;28;20037;-94
2024/02/26 04:50:38;;;;;;;1.58;0.40;;;;;;;3.63;100.00;100464.44;4971015;28;20025;-94
2024/02/26 04:53:10;;;;;;;1.83;0.50;;;;;;;3.69;100.00;100485.00;4989269;28;20140;-92
2024/02/26 04:55:39;;;;;;;1.23;0.50;;;;;;;3.62;100.00;100494.13;4963165;28;20452;-93
2024/02/26 04:58:05;;;;;;;2.33;0.65;;;;;;;3.56;100.00;100487.53;4976568;28;20380;-94
2024/02/26 05:00:31;;;;;;;1.85;0.60;;;;;;;3.55;100.00;100493.69;4971711;28;20490;-95
2024/02/26 05:03:01;;;;;;;5.28;0.90;;;;;;;3.58;100.00;100508.34;4950243;28;20034;-95
2024/02/26 05:05:33;;;;;;;3.42;1.33;;;;;;;3.64;100.00;100509.72;4956249;28;20034;-94
2024/02/26 05:08:03;;;;;;;5.93;1.30;;;;;;;3.57;100.00;100520.56;4995201;28;20042;-95
2024/02/26 05:10:29;;;;;;;1.27;0.75;;;;;;;3.52;100.00;100514.78;4978707;28;20042;-94
2024/02/26 05:13:02;;;;;;;1.63;1.10;;;;;;;3.51;100.00;100504.44;4993026;28;20084;-95
2024/02/26 05:18:31;;;;;;;4.00;1.20;;;;;;;3.46;100.00;100536.09;4972522;28;20046;-95
2024/02/26 05:20:59;;;;;;;5.53;1.48;;;;;;;3.37;100.00;100536.66;4976742;28;20077;-95
2024/02/26 05:23:24;;;;;;;2.50;0.80;;;;;;;3.38;100.00;100535.75;4986508;28;20085;-95
2024/02/26 05:25:50;;;;;;;3.42;1.20;;;;;;;3.41;100.00;100549.44;4961557;28;20585;-95
2024/02/26 05:28:19;;;;;;;1.42;0.80;;;;;;;3.46;100.00;100560.44;4973077;28;20058;-94
2024/02/26 05:30:46;;;;;;;4.10;1.02;;;;;;;3.50;100.00;100562.88;4961588;28;20482;-95
2024/02/26 05:33:14;;;;;;;1.83;0.50;;;;;;;3.54;100.00;100559.97;4984954;28;20675;-95
2024/02/26 05:35:41;;;;;;;3.22;0.63;;;;;;;3.57;100.00;100561.53;4974264;28;20162;-94
2024/02/26 05:38:10;;;;;;;12.15;1.00;;;;;;;3.63;100.00;100581.25;4959433;28;20129;-95
2024/02/26 05:40:45;;;;;;;7.63;0.82;;;;;;;3.69;100.00;100589.56;4968215;28;20050;-96
2024/02/26 05:43:24;;;;;;;2.90;0.88;;;;;;;3.67;100.00;100585.34;4973319;28;20038;-95
2024/02/26 05:45:56;;;;;;;4.10;0.75;;;;;;;3.78;100.00;100579.44;4962099;28;20038;-94
2024/02/26 05:48:33;;;;;;;5.88;1.00;;;;;;;3.86;100.00;100590.25;4972916;28;20038;-95
2024/02/26 05:50:59;;;;;;;0.73;0.45;;;;;;;3.87;100.00;100610.22;4973846;28;20034;-95
2024/02/26 05:53:25;;;;;;;9.85;1.00;;;;;;;3.95;100.00;100615.00;4980543;28;20068;-93
2024/02/26 05:56:00;;;;;;;6.50;1.33;;;;;;;4.03;100.00;100606.66;4975065;28;20107;-95
2024/02/26 05:58:26;;;;;;;3.05;1.55;;;;;;;4.02;100.00;100633.75;4970595;28;20077;-96
2024/02/26 06:00:52;;;;;;;3.65;0.93;;;;;;;4.04;100.00;100629.25;4990894;28;20053;-93
2024/02/26 06:03:18;;;;;;;4.70;1.00;;;;;;;4.08;100.00;100625.50;4988595;28;20399;-94
2024/02/26 06:05:44;;;;;;;5.82;1.00;;;;;;;4.09;100.00;100642.91;4959815;28;20042;-93
2024/02/26 06:08:13;;;;;;;2.08;0.65;;;;;;;4.05;100.00;100649.25;4957699;28;20478;-95
2024/02/26 06:10:39;;;;;;;6.30;1.25;;;;;;;4.07;100.00;100647.38;4974369;28;20046;-95
2024/02/26 06:13:05;;;;;;;6.15;1.58;;;;;;;4.05;100.00;100657.94;4989266;28;20137;-94
2024/02/26 06:15:54;;;;;;;2.75;0.85;;;;;;;4.09;100.00;100661.22;4992004;28;20141;-96
2024/02/26 06:18:32;;;;;;;9.27;1.13;;;;;;;4.03;100.00;100659.81;4973432;28;20034;-95
2024/02/26 06:24:01;;;;;;;2.60;0.98;;;;;;;4.04;100.00;100661.50;4931413;28;20543;-96
2024/02/26 06:26:29;;;;;;;7.22;1.30;;;;;;;3.95;100.00;100659.47;4959323;28;20368;-95
2024/02/26 06:28:55;;;;;;;3.58;0.98;;;;;;;3.96;100.00;100661.13;4965394;28;20038;-96
2024/02/26 06:31:24;;;;;;;5.43;1.10;;;;;;;3.97;100.00;100655.81;4967496;28;20570;-95
2024/02/26 06:33:50;;;;;;;2.70;0.70;;;;;;;3.90;100.00;100664.13;4962558;28;20608;-95
2024/02/26 06:36:19;;;;;;;4.15;1.10;;;;;;;3.90;100.00;100657.09;4975705;28;20058;-95
2024/02/26 06:38:47;;;;;;;6.15;0.75;;;;;;;3.92;100.00;100678.78;4976286;28;20100;-96
2024/02/26 06:41:27;;;;;;;6.32;0.32;;;;;;;3.97;100.00;100674.13;4977130;28;20129;-95
2024/02/26 06:43:54;;;;;;;1.52;0.60;;;;;;;3.91;100.00;100678.88;4974785;28;20038;-94
2024/02/26 06:46:26;;;;;;;4.65;0.82;;;;;;;3.92;100.00;100681.41;4971164;28;20057;-95
2024/02/26 06:48:53;;;;;;;9.15;1.10;;;;;;;3.93;100.00;100684.88;4995110;28;20073;-95
2024/02/26 06:51:19;;;;;;;6.28;1.17;;;;;;;3.92;100.00;100693.63;4965702;28;20037;-95
2024/02/26 06:53:45;;;;;;;4.57;1.00;;;;;;;3.92;100.00;100691.00;4961538;28;20073;-95
2024/02/26 06:56:12;;;;;;;10.20;1.05;;;;;;;3.89;100.00;100681.59;4991965;28;20034;-94
2024/02/26 06:58:38;;;;;;;4.03;0.65;;;;;;;3.81;100.00;100686.44;4976061;28;20026;-94
2024/02/26 07:01:04;;;;;;;6.05;1.40;;;;;;;3.79;100.00;100690.94;4992379;28;20025;-94
2024/02/26 07:03:34;;;;;;;4.45;0.90;;;;;;;3.78;100.00;100695.34;4974486;28;20034;-94
2024/02/26 07:06:03;;;;;;;2.92;0.90;;;;;;;3.71;100.00;100694.03;4978633;28;20156;-94
2024/02/26 07:08:35;;;;;;;5.43;1.42;;;;;;;3.71;100.00;100697.47;4977946;28;20138;-95
2024/02/26 07:11:01;;;;;;;3.65;0.80;;;;;;;3.69;100.00;100698.50;4979003;28;20120;-95
2024/02/26 07:13:27;;;;;;;1.45;0.70;;;;;;;3.75;100.00;100708.59;4952188;28;20030;-95
2024/02/26 07:16:01;;;;;;;8.30;2.17;;;;;;;3.74;100.00;100693.00;4966452;28;20030;-96
2024/02/26 07:18:30;;;;;;;7.53;1.35;;;;;;;3.81;100.00;100713.44;4966160;28;20046;-94
2024/02/26 07:20:55;;;;;;;4.03;1.02;;;;;;;3.78;100.00;100720.63;4973314;28;20089;-95
2024/02/26 07:23:24;;;;;;;5.82;1.15;;;;;;;3.82;100.00;100730.00;4989757;28;20065;-96
2024/02/26 07:25:54;;;;;;;3.03;0.65;;;;;;;3.78;100.00;100724.09;4969622;28;20030;-95
2024/02/26 07:28:23;;;;;;;4.13;0.88;;;;;;;3.78;100.00;100731.94;4969768;28;20181;-94
2024/02/26 07:30:52;;;;;;;4.80;0.70;;;;;;;3.81;100.00;100739.59;4979183;28;20033;-94
2024/02/26 07:33:18;;;;;;;4.55;1.30;;;;;;;3.88;100.00;100749.69;4961042;28;20107;-96
2024/02/26 07:35:44;;;;;;;3.58;0.65;;;;;;;3.88;100.00;100745.31;4955292;28;20042;-95
2024/02/26 07:38:14;;;;;;;4.63;1.20;;;;;;;3.94;100.00;100758.00;4960261;28;20053;-95
2024/02/26 07:40:54;;;;;;;2.50;0.88;;;;;;;3.90;100.00;100753.06;4963233;28;20049;-95
2024/02/26 07:43:23;;;;;;;4.22;1.13;;;;;;;3.94;100.00;100759.75;4974850;28;20034;-94
2024/02/26 07:45:51;;;;;;;7.15;1.35;;;;;;;3.99;100.00;100768.19;4959835;28;20160;-95
2024/02/26 07:48:19;;;;;;;4.03;1.00;;;;;;;4.08;100.00;100767.63;4956704;28;20042;-95
2024/02/26 07:50:45;;;;;;;4.13;1.08;;;;;;;4.17;100.00;100781.91;4991174;28;20042;-96
2024/02/26 07:53:12;;;;;;;3.55;1.30;;;;;;;4.17;100.00;100768.00;5005902;28;20496;-96
2024/02/26 07:55:40;;;;;;;3.40;1.05;;;;;;;4.22;100.00;100779.84;4957160;28;20038;-96
2024/02/26 07:58:06;;;;;;;1.38;1.10;;;;;;;4.31;100.00;100798.53;4970200;28;20103;-94
2024/02/26 08:00:35;;;;;;;5.13;1.42;;;;;;;4.38;100.00;100794.59;4979345;28;20069;-95
2024/02/26 08:03:02;;;;;;;8.27;1.40;;;;;;;4.39;100.00;100796.28;4973294;28;20066;-96
2024/02/26 08:05:28;;;;;;;6.10;1.10;;;;;;;4.42;100.00;100811.81;4976782;28;20042;-94
2024/02/26 08:07:57;;;;;;;5.82;1.30;;;;;;;4.49;100.00;100824.50;4963083;28;20149;-95
2024/02/26 08:10:26;;;;;;;5.57;1.02;;;;;;;4.46;100.00;100826.38;4989774;28;20045;-96
2024/02/26 08:12:52;;;;;;;6.18;1.70;;;;;;;4.50;100.00;100834.03;4972893;28;20407;-94
2024/02/26 08:15:19;;;;;;;3.45;1.88;;;;;;;4.55;100.00;100843.31;4975379;28;20084;-94
2024/02/26 08:17:44;;;;;;;8.63;1.48;;;;;;;4.49;100.00;100845.47;4957838;28;20116;-95
2024/02/26 08:20:11;;;;;;;3.92;2.10;;;;;;;4.42;100.00;100845.84;4966981;28;20589;-95
2024/02/26 08:22:37;;;;;;;3.72;1.42;;;;;;;4.49;100.00;100861.16;4973103;28;20042;-95
2024/02/26 08:25:06;;;;;;;5.22;0.95;;;;;;;4.50;100.00;100855.84;4989288;28;20484;-95
2024/02/26 08:27:32;;;;;;;7.47;1.08;;;;;;;4.54;100.00;100870.41;4959160;28;20042;-94
2024/02/26 08:29:58;;;;;;;6.13;0.70;;;;;;;4.60;100.00;100874.44;4992168;28;20048;-96
2024/02/26 08:32:24;;;;;;;1.63;0.40;;;;;;;4.62;100.00;100887.44;4972423;28;20050;-95
2024/02/26 08:34:49;;;;;;;4.60;0.80;;;;;;;4.65;100.00;100880.22;4956623;28;20030;-94
2024/02/26 08:37:15;;;;;;;4.68;1.13;;;;;;;4.69;100.00;100873.00;4973428;28;20043;-95
2024/02/26 08:39:41;;;;;;;5.05;0.70;;;;;;;4.71;100.00;100882.44;4956664;28;20034;-94
2024/02/26 08:42:07;;;;;;;1.85;0.55;;;;;;;4.69;100.00;100873.88;4988435;28;20034;-96
2024/02/26 08:44:33;;;;;;;1.75;0.77;;;;;;;4.69;100.00;100879.09;4976457;28;20069;-95
2024/02/26 08:46:59;;;;;;;5.28;0.80;;;;;;;4.77;100.00;100893.50;4972629;28;20085;-96
2024/02/26 08:49:24;;;;;;;5.20;0.70;;;;;;;4.83;100.00;100914.06;4990268;28;20108;-95
2024/02/26 08:51:50;;;;;;;2.80;0.82;;;;;;;4.86;100.00;100911.25;4971196;28;20038;-95
2024/02/26 08:54:16;;;;;;;0.88;0.50;;;;;;;4.88;100.00;100924.25;4975026;28;20041;-94
2024/02/26 08:56:42;;;;;;;3.63;0.35;;;;;;;4.80;100.00;100932.59;4969001;28;20754;-95
2024/02/26 08:59:08;;;;;;;1.75;0.63;;;;;;;4.83;100.00;100933.25;4968760;28;20042;-96
2024/02/26 09:01:33;;;;;;;4.47;0.70;;;;;;;4.94;100.00;100942.19;4956880;28;20038;-95
2024/02/26 09:03:59;;;;;;;3.83;0.80;;;;;;;5.04;100.00;100940.72;4955940;28;20060;-95
2024/02/26 09:06:26;;;;;;;3.53;0.45;;;;;;;5.08;100.00;100939.56;4973156;28;20030;-95
2024/02/26 09:08:51;;;;;;;3.67;0.60;;;;;;;5.20;100.00;100944.97;4975050;28;20065;-96
2024/02/26 09:11:17;;;;;;;2.85;0.50;;;;;;;5.29;100.00;100943.53;4973999;28;20402;-95
2024/02/26 09:13:43;;;;;;;5.68;0.70;;;;;;;5.35;100.00;100935.31;4957072;28;20035;-94
2024/02/26 09:16:09;;;;;;;3.42;0.70;;;;;;;5.43;100.00;100947.94;4986293;28;20030;-94
2024/02/26 09:18:35;;;;;;;2.35;0.55;;;;;;;5.46;100.00;100940.69;4974713;28;20045;-95
2024/02/26 09:21:05;;;;;;;3.38;0.50;;;;;;;5.58;100.00;100946.94;4972834;28;20034;-96
2024/02/26 09:23:31;;;;;;;6.25;0.80;;;;;;;5.58;100.00;100961.81;4948635;28;20034;-96
2024/02/26 09:25:57;;;;;;;2.00;0.40;;;;;;;5.51;100.00;100966.63;4945590;28;20042;-96
2024/02/26 09:28:23;;;;;;;3.28;0.40;;;;;;;5.50;100.00;100964.09;4962707;28;20046;-95
2024/02/26 09:30:50;;;;;;;1.50;0.35;;;;;;;5.60;100.00;100975.69;4988755;28;20041;-94
2024/02/26 09:33:26;;;;;;;3.72;0.38;;;;;;;5.68;100.00;100970.81;4971747;28;20053;-90
2024/02/26 09:36:00;;;;;;;3.28;0.60;;;;;;;5.70;100.00;100968.91;4952941;28;20038;-92
2024/02/26 09:38:26;;;;;;;1.42;0.30;;;;;;;5.69;100.00;100956.72;4969456;28;20034;-95
2024/02/26 09:40:53;;;;;;;1.98;0.32;;;;;;;5.67;100.00;100944.66;4971059;28;20042;-94
2024/02/26 09:43:28;;;;;;;9.23;0.50;;;;;;;5.68;100.00;100952.44;4958736;28;20434;-94
2024/02/26 09:45:55;;;;;;;3.08;1.00;;;;;;;5.72;100.00;100968.78;4958678;28;20114;-95
2024/02/26 09:48:26;;;;;;;1.10;0.50;;;;;;;5.69;100.00;100948.00;4983096;28;20117;-90
2024/02/26 09:50:55;;;;;;;2.42;0.57;;;;;;;5.70;100.00;100958.41;4959948;28;20026;-90
2024/02/26 09:53:22;;;;;;;3.60;0.73;;;;;;;5.70;100.00;100949.72;4967313;28;20176;-96
2024/02/26 09:55:49;;;;;;;2.00;0.68;;;;;;;5.79;100.00;100958.75;4958520;28;20125;-95
2024/02/26 09:58:22;;;;;;;1.95;0.43;;;;;;;5.74;100.00;100950.34;4957291;28;20069;-94
2024/02/26 10:01:13;;;;;;;1.70;0.50;;;;;;;5.81;100.00;100933.28;4971946;28;20042;-94
2024/02/26 10:03:41;;;;;;;3.03;0.40;;;;;;;5.84;100.00;100939.13;4971988;28;20050;-95
2024/02/26 10:06:08;;;;;;;6.13;1.02;;;;;;;5.88;100.00;100946.81;4974324;28;20130;-94
2024/02/26 10:08:36;;;;;;;1.63;0.40;;;;;;;5.98;100.00;100940.03;4973273;28;20035;-95
2024/02/26 10:11:10;;;;;;;5.80;0.73;;;;;;;6.04;100.00;100947.50;4973080;28;20037;-94
2024/02/26 10:13:39;;;;;;;1.90;0.50;;;;;;;6.05;100.00;100933.44;4987197;28;20034;-95
2024/02/26 10:16:06;;;;;;;5.63;0.80;;;;;;;6.02;100.00;100931.00;4953038;28;20035;-94
2024/02/26 10:18:51;;;;;;;7.63;1.08;;;;;;;6.17;100.00;100928.31;4987268;28;20480;-94
2024/02/26 10:21:20;;;;;;;5.90;0.82;;;;;;;6.14;100.00;100925.91;4966060;28;20026;-95
2024/02/26 10:24:15;;;;;;;4.65;0.90;;;;;;;6.34;100.00;100919.28;4958105;28;20061;-95
2024/02/26 10:26:46;;;;;;;2.70;0.60;;;;;;;6.28;100.00;100925.81;4976094;28;20038;-95
2024/02/26 10:29:18;;;;;;;3.85;0.57;;;;;;;6.27;100.00;100920.66;4972890;28;20030;-95
2024/02/26 10:32:17;;;;;;;5.50;0.70;;;;;;;6.24;100.00;100921.72;4966668;28;20131;-95
2024/02/26 10:34:53;;;;;;;5.88;0.80;;;;;;;6.50;100.00;100953.22;4949277;28;20130;-95
2024/02/26 10:37:23;;;;;;;4.03;0.65;;;;;;;6.49;100.00;100951.56;4939263;28;20037;-95
2024/02/26 10:39:58;;;;;;;;;;;;;;;6.45;100.00;100961.41;4936413;28;20035;-95
2024/02/26 10:42:25;;;;;;;6.13;0.60;;;;;;;6.49;100.00;100969.94;4954180;28;20282;-95
2024/02/26 10:44:51;;;;;;;2.45;0.60;;;;;;;6.60;100.00;100974.44;4934856;28;20168;-95
2024/02/26 10:47:18;;;;;;;5.32;0.60;;;;;;;6.67;100.00;100977.50;4956617;28;20078;-95
2024/02/26 10:49:48;;;;;;;8.88;1.45;;;;;;;6.70;100.00;100979.91;4938185;28;20035;-95
2024/02/26 10:52:15;;;;;;;6.43;1.45;;;;;;;6.80;100.00;100988.84;4929273;29;20065;-95
2024/02/26 10:54:44;;;;;;;3.58;0.88;;;;;;;6.79;100.00;100991.56;4939740;28;20062;-94
2024/02/26 10:57:15;;;;;;;2.40;0.65;;;;;;;6.86;100.00;100978.84;4957230;28;20031;-95
2024/02/26 10:59:44;;;;;;;1.33;0.70;;;;;;;6.91;100.00;100985.47;4949218;28;20818;-95
2024/02/26 11:02:10;;;;;;;3.92;0.93;;;;;;;6.85;100.00;100980.63;4953476;28;20098;-95
2024/02/26 11:04:38;;;;;;;12.55;1.00;;;;;;;6.99;100.00;100995.44;4966377;28;20510;-95
2024/02/26 11:07:04;;;;;;;2.33;0.57;;;;;;;6.99;100.00;100999.88;4969393;28;20484;-94
2024/02/26 11:09:32;;;;;;;4.18;0.63;;;;;;;6.92;100.00;100997.66;4967748;28;20422;-96
2024/02/26 11:12:02;;;;;;;0.95;0.65;;;;;;;7.04;100.00;101006.47;4950515;28;20415;-96
2024/02/26 11:14:29;;;;;;;4.03;0.70;;;;;;;7.00;100.00;101015.53;4951277;28;20094;-96
2024/02/26 11:17:00;;;;;;;5.40;0.70;;;;;;;6.98;100.00;101016.56;4937676;28;20047;-96
2024/02/26 11:19:27;;;;;;;4.03;0.70;;;;;;;7.07;100.00;101042.25;4938534;28;20391;-96
2024/02/26 11:21:53;;;;;;;3.38;0.70;;;;;;;7.14;100.00;101055.78;4970245;28;20565;-95
2024/02/26 11:24:19;;;;;;;3.35;0.80;;;;;;;7.10;100.00;101049.06;4952335;28;20043;-96
2024/02/26 11:26:50;;;;;;;3.00;0.52;;;;;;;7.22;100.00;101063.13;4961505;28;20030;-96
2024/02/26 11:29:22;;;;;;;4.93;0.40;;;;;;;7.25;100.00;101055.03;4968032;28;20279;-96
2024/02/26 11:31:48;;;;;;;4.28;0.68;;;;;;;7.22;100.00;101056.09;4955314;28;20054;-95
2024/02/26 11:34:14;;;;;;;6.00;0.68;;;;;;;7.14;100.00;101059.25;4953625;28;20084;-93
2024/02/26 11:36:41;;;;;;;2.67;0.30;;;;;;;7.28;100.00;101074.06;4975275;28;20044;-96
2024/02/26 11:39:08;;;;;;;5.05;0.73;;;;;;;7.51;100.00;101063.72;4974008;28;20093;-96
2024/02/26 11:41:33;;;;;;;7.10;1.00;;;;;;;7.58;100.00;101072.00;4978177;28;20041;-96
2024/02/26 11:44:01;;;;;;;6.97;0.60;;;;;;;7.54;100.00;101092.44;4972663;28;20113;-96
2024/02/26 11:46:33;;;;;;;3.72;0.60;;;;;;;7.53;100.00;101090.75;4973859;28;20303;-95
2024/02/26 11:49:01;;;;;;;5.22;0.43;;;;;;;7.53;100.00;101088.13;4988784;28;20188;-95